Time;durP1;ratioP1;P1;durP2;ratioP2;P2;SDS_P1;SDS_P2;PMS_P1;PMS_P2;Temp;Humidity;BMP_temperature;BMP_pressure;BME280_temperature;BME280_humidity;BME280_pressure;Samples;Min_cycle;Max_cycle;Signal;HPM_P1;HPM_P2
2022/09/17 00:00:22;;;;;;;35.55;32.28;;;;;;;;;;4994941;28;20100;-66
2022/09/17 00:02:54;;;;;;;35.78;32.53;;;;;;;;;;4995427;28;20034;-68
2022/09/17 00:05:23;;;;;;;34.58;31.45;;;;;;;;;;4994866;28;20022;-68
2022/09/17 00:07:50;;;;;;;34.30;31.35;;;;;;;;;;4994917;28;20451;-69
2022/09/17 00:10:17;;;;;;;35.80;32.80;;;;;;;;;;5034008;22;20041;-62
2022/09/17 00:12:43;;;;;;;35.67;32.42;;;;;;;;;;5053561;28;20040;-64
2022/09/17 00:15:09;;;;;;;36.03;32.42;;;;;;;;;;5053223;28;20013;-63
2022/09/17 00:17:35;;;;;;;35.03;31.77;;;;;;;;;;5053050;28;20017;-63
2022/09/17 00:20:01;;;;;;;35.75;32.55;;;;;;;;;;5053167;28;20440;-63
2022/09/17 00:22:27;;;;;;;36.47;33.17;;;;;;;;;;5053283;28;20424;-61
2022/09/17 00:24:53;;;;;;;36.08;32.85;;;;;;;;;;5053143;28;20021;-63
2022/09/17 00:27:19;;;;;;;35.33;31.77;;;;;;;;;;5052909;28;20017;-63
2022/09/17 00:29:47;;;;;;;34.65;31.83;;;;;;;;;;5052962;28;20484;-63
2022/09/17 00:32:13;;;;;;;34.42;31.23;;;;;;;;;;5053041;28;20108;-63
2022/09/17 00:34:39;;;;;;;33.78;30.67;;;;;;;;;;5053256;28;20488;-63
2022/09/17 00:37:05;;;;;;;33.92;30.38;;;;;;;;;;5052958;28;20021;-64
2022/09/17 00:39:31;;;;;;;32.55;29.65;;;;;;;;;;5051421;28;20017;-63
2022/09/17 00:41:57;;;;;;;34.92;31.73;;;;;;;;;;5052892;28;20487;-64
2022/09/17 00:44:35;;;;;;;32.63;29.58;;;;;;;;;;5052789;28;20021;-63
2022/09/17 00:47:01;;;;;;;33.20;29.98;;;;;;;;;;5052543;28;20616;-63
2022/09/17 00:49:28;;;;;;;32.00;29.02;;;;;;;;;;5051996;28;20086;-65
2022/09/17 00:52:04;;;;;;;32.50;29.42;;;;;;;;;;5052863;28;20033;-61
2022/09/17 00:54:30;;;;;;;32.45;29.27;;;;;;;;;;5052532;28;20021;-63
2022/09/17 00:56:57;;;;;;;32.22;29.33;;;;;;;;;;5052453;28;20101;-65
2022/09/17 00:59:23;;;;;;;31.42;28.67;;;;;;;;;;5051016;28;20017;-63
2022/09/17 01:01:49;;;;;;;32.22;29.33;;;;;;;;;;5052560;28;20021;-63
2022/09/17 01:04:19;;;;;;;31.73;28.60;;;;;;;;;;5051354;28;20024;-64
2022/09/17 01:06:49;;;;;;;30.20;27.30;;;;;;;;;;5051206;28;20120;-64
2022/09/17 01:09:21;;;;;;;28.98;26.27;;;;;;;;;;5052099;28;20107;-63
2022/09/17 01:11:47;;;;;;;29.88;26.10;;;;;;;;;;5052448;28;20075;-63
2022/09/17 01:14:13;;;;;;;28.83;25.83;;;;;;;;;;5052396;28;20025;-62
2022/09/17 01:16:42;;;;;;;27.52;25.13;;;;;;;;;;5052436;28;20098;-64
2022/09/17 01:19:11;;;;;;;29.60;26.60;;;;;;;;;;5052080;28;20017;-63
2022/09/17 01:21:46;;;;;;;27.73;24.98;;;;;;;;;;5052248;28;20025;-64
2022/09/17 01:24:31;;;;;;;27.45;24.00;;;;;;;;;;5052291;28;20021;-65
2022/09/17 01:27:03;;;;;;;27.50;24.77;;;;;;;;;;5052221;28;20029;-64
2022/09/17 01:29:48;;;;;;;27.17;24.50;;;;;;;;;;5051787;28;20027;-65
2022/09/17 01:32:29;;;;;;;26.92;24.42;;;;;;;;;;5052193;28;20029;-65
2022/09/17 01:35:01;;;;;;;29.25;25.30;;;;;;;;;;5051101;28;20040;-65
2022/09/17 01:37:27;;;;;;;27.23;23.15;;;;;;;;;;5050943;28;20059;-66
2022/09/17 01:40:00;;;;;;;25.55;22.67;;;;;;;;;;5052214;28;20032;-64
2022/09/17 01:42:30;;;;;;;26.63;21.35;;;;;;;;;;5050985;28;20044;-64
2022/09/17 01:44:59;;;;;;;32.42;22.73;;;;;;;;;;5052347;28;20046;-68
2022/09/17 01:47:36;;;;;;;23.67;21.20;;;;;;;;;;5051992;28;20056;-65
2022/09/17 01:50:21;;;;;;;32.55;20.60;;;;;;;;;;5050964;28;20116;-65
2022/09/17 01:52:48;;;;;;;26.52;21.05;;;;;;;;;;5052204;28;20017;-64
2022/09/17 01:55:15;;;;;;;21.30;19.10;;;;;;;;;;5052332;28;20078;-65
2022/09/17 01:57:41;;;;;;;23.15;18.55;;;;;;;;;;5051896;28;20032;-64
2022/09/17 02:00:16;;;;;;;25.50;20.42;;;;;;;;;;5051926;28;20013;-66
2022/09/17 02:02:54;;;;;;;26.10;19.02;;;;;;;;;;5052957;28;20052;-65
2022/09/17 02:05:29;;;;;;;22.73;18.75;;;;;;;;;;5056433;28;20021;-64
2022/09/17 02:07:57;;;;;;;23.73;19.90;;;;;;;;;;5056004;28;20025;-64
2022/09/17 02:10:31;;;;;;;25.40;19.52;;;;;;;;;;5054678;28;20029;-64
2022/09/17 02:13:00;;;;;;;24.70;19.35;;;;;;;;;;5056406;28;20078;-64
2022/09/17 02:15:29;;;;;;;25.38;19.02;;;;;;;;;;5055896;28;20021;-64
2022/09/17 02:17:59;;;;;;;24.27;19.20;;;;;;;;;;5055725;28;20017;-65
2022/09/17 02:20:29;;;;;;;27.63;18.35;;;;;;;;;;5056008;28;20048;-65
2022/09/17 02:22:56;;;;;;;23.88;18.33;;;;;;;;;;5055792;28;20052;-65
2022/09/17 02:25:41;;;;;;;28.58;18.95;;;;;;;;;;5055677;28;20067;-65
2022/09/17 02:28:27;;;;;;;28.45;20.17;;;;;;;;;;5055648;28;20025;-65
2022/09/17 02:30:53;;;;;;;26.17;18.20;;;;;;;;;;5054309;28;20080;-65
2022/09/17 02:33:19;;;;;;;25.40;19.35;;;;;;;;;;5055443;28;20021;-65
2022/09/17 02:35:46;;;;;;;23.65;17.80;;;;;;;;;;5055407;28;20060;-65
2022/09/17 02:38:12;;;;;;;25.60;17.98;;;;;;;;;;5053852;28;20032;-65
2022/09/17 02:40:46;;;;;;;26.67;17.92;;;;;;;;;;5055528;28;20028;-65
2022/09/17 02:43:21;;;;;;;24.50;17.63;;;;;;;;;;5055571;28;20074;-64
2022/09/17 02:46:07;;;;;;;30.35;18.80;;;;;;;;;;5055207;28;20036;-66
2022/09/17 02:48:40;;;;;;;32.47;18.45;;;;;;;;;;5054661;28;20029;-65
2022/09/17 02:51:21;;;;;;;25.77;18.05;;;;;;;;;;5054997;28;20020;-64
2022/09/17 02:53:46;;;;;;;26.52;17.63;;;;;;;;;;5054252;28;20624;-64
2022/09/17 02:56:22;;;;;;;25.15;17.40;;;;;;;;;;5055563;28;20013;-63
2022/09/17 02:58:52;;;;;;;25.75;16.13;;;;;;;;;;5055100;28;20047;-62
2022/09/17 03:01:27;;;;;;;25.35;16.15;;;;;;;;;;5055408;28;20536;-64
2022/09/17 03:03:55;;;;;;;29.63;17.75;;;;;;;;;;5055402;28;20021;-64
2022/09/17 03:06:21;;;;;;;22.70;14.43;;;;;;;;;;5055056;28;20062;-64
2022/09/17 03:08:47;;;;;;;26.08;13.95;;;;;;;;;;5055239;28;20055;-65
2022/09/17 03:11:14;;;;;;;25.88;14.25;;;;;;;;;;5053411;28;20028;-64
2022/09/17 03:13:40;;;;;;;25.48;13.75;;;;;;;;;;5053210;28;20490;-64
2022/09/17 03:16:06;;;;;;;25.10;13.70;;;;;;;;;;5054821;28;20346;-65
2022/09/17 03:18:32;;;;;;;19.63;13.10;;;;;;;;;;5052939;28;20024;-65
2022/09/17 03:20:58;;;;;;;27.23;13.90;;;;;;;;;;5054207;28;20025;-65
2022/09/17 03:23:26;;;;;;;31.08;12.82;;;;;;;;;;5054828;28;20028;-65
2022/09/17 03:25:52;;;;;;;21.35;12.30;;;;;;;;;;5054836;28;20044;-65
2022/09/17 03:28:18;;;;;;;23.88;12.18;;;;;;;;;;5054083;28;20064;-63
2022/09/17 03:30:45;;;;;;;20.77;11.90;;;;;;;;;;5054563;28;20493;-64
2022/09/17 03:33:11;;;;;;;22.42;10.68;;;;;;;;;;5053369;28;20055;-65
2022/09/17 03:35:37;;;;;;;25.30;11.25;;;;;;;;;;5054339;28;20040;-64
2022/09/17 03:38:03;;;;;;;30.52;11.98;;;;;;;;;;5052951;28;20565;-65
2022/09/17 03:40:29;;;;;;;27.58;10.63;;;;;;;;;;5054612;28;20104;-64
2022/09/17 03:42:55;;;;;;;23.40;12.00;;;;;;;;;;5054330;28;20024;-65
2022/09/17 03:45:21;;;;;;;24.45;10.98;;;;;;;;;;5053029;28;20071;-65
2022/09/17 03:47:47;;;;;;;24.65;10.77;;;;;;;;;;5054130;28;20024;-65
2022/09/17 03:50:13;;;;;;;27.10;11.05;;;;;;;;;;5053016;28;20093;-65
2022/09/17 03:52:39;;;;;;;21.48;10.27;;;;;;;;;;5052730;28;20024;-65
2022/09/17 03:55:05;;;;;;;24.00;10.10;;;;;;;;;;5053997;28;20105;-65
2022/09/17 03:57:31;;;;;;;21.75;9.68;;;;;;;;;;5053841;28;20028;-64
2022/09/17 03:59:57;;;;;;;22.77;9.52;;;;;;;;;;5052922;28;20017;-65
2022/09/17 04:02:23;;;;;;;23.35;10.85;;;;;;;;;;5054408;28;20099;-64
2022/09/17 04:04:49;;;;;;;19.30;9.98;;;;;;;;;;5053762;28;20021;-66
2022/09/17 04:07:15;;;;;;;20.70;8.85;;;;;;;;;;5053811;28;20028;-66
2022/09/17 04:09:41;;;;;;;24.98;10.23;;;;;;;;;;5052355;28;20119;-65
2022/09/17 04:12:07;;;;;;;29.52;10.65;;;;;;;;;;5053698;28;20029;-65
2022/09/17 04:14:33;;;;;;;23.05;9.48;;;;;;;;;;5053796;28;20025;-64
2022/09/17 04:16:59;;;;;;;25.52;9.35;;;;;;;;;;5053621;28;20025;-65
2022/09/17 04:19:25;;;;;;;24.38;9.30;;;;;;;;;;5053288;28;20104;-64
2022/09/17 04:21:51;;;;;;;22.83;10.68;;;;;;;;;;5053547;28;20056;-67
2022/09/17 04:24:18;;;;;;;31.50;10.57;;;;;;;;;;5052961;28;20381;-65
2022/09/17 04:26:44;;;;;;;25.60;9.43;;;;;;;;;;5052127;28;20428;-64
2022/09/17 04:29:10;;;;;;;19.90;9.23;;;;;;;;;;5053181;28;20021;-65
2022/09/17 04:31:36;;;;;;;27.35;10.18;;;;;;;;;;5052154;28;20070;-65
2022/09/17 04:34:01;;;;;;;22.15;10.35;;;;;;;;;;5053372;28;20017;-65
2022/09/17 04:36:27;;;;;;;20.35;9.15;;;;;;;;;;5053531;28;20484;-66
2022/09/17 04:38:53;;;;;;;20.17;9.65;;;;;;;;;;5051841;28;20020;-65
2022/09/17 04:41:19;;;;;;;22.05;8.35;;;;;;;;;;5053585;28;20013;-66
2022/09/17 04:43:46;;;;;;;24.50;9.25;;;;;;;;;;5053391;28;20372;-64
2022/09/17 04:46:13;;;;;;;20.30;8.43;;;;;;;;;;5051907;28;20044;-66
2022/09/17 04:48:39;;;;;;;22.60;9.07;;;;;;;;;;5051755;28;20071;-65
2022/09/17 04:51:05;;;;;;;20.67;8.88;;;;;;;;;;5053185;28;20020;-65
2022/09/17 04:53:31;;;;;;;21.48;8.68;;;;;;;;;;5053514;28;20021;-65
2022/09/17 04:55:57;;;;;;;22.92;8.00;;;;;;;;;;5053535;28;20017;-64
2022/09/17 04:58:23;;;;;;;18.80;8.40;;;;;;;;;;5053208;28;20019;-62
2022/09/17 05:00:49;;;;;;;26.42;9.07;;;;;;;;;;5053212;28;20465;-64
2022/09/17 05:03:15;;;;;;;21.50;8.35;;;;;;;;;;5053206;28;20032;-66
2022/09/17 05:05:41;;;;;;;23.02;8.80;;;;;;;;;;5051646;28;20032;-64
2022/09/17 05:08:07;;;;;;;19.85;9.98;;;;;;;;;;5052699;28;20025;-65
2022/09/17 05:10:33;;;;;;;28.90;9.20;;;;;;;;;;5052820;28;20036;-65
2022/09/17 05:12:59;;;;;;;24.95;9.07;;;;;;;;;;5051500;28;20032;-65
2022/09/17 05:15:26;;;;;;;23.95;8.90;;;;;;;;;;5053033;28;20017;-66
2022/09/17 05:17:52;;;;;;;21.77;8.85;;;;;;;;;;5052699;28;20624;-65
2022/09/17 05:20:18;;;;;;;23.92;8.45;;;;;;;;;;5052590;28;20642;-65
2022/09/17 05:22:45;;;;;;;19.80;8.10;;;;;;;;;;5051561;28;20024;-65
2022/09/17 05:25:12;;;;;;;21.77;8.38;;;;;;;;;;5052570;28;20025;-66
2022/09/17 05:27:38;;;;;;;20.27;8.20;;;;;;;;;;5051010;28;20047;-66
2022/09/17 05:30:04;;;;;;;21.20;7.80;;;;;;;;;;5052532;28;20028;-66
2022/09/17 05:32:30;;;;;;;17.92;7.43;;;;;;;;;;5052229;28;20024;-66
2022/09/17 05:34:56;;;;;;;44.72;12.48;;;;;;;;;;5052322;28;20032;-66
2022/09/17 05:37:22;;;;;;;18.02;7.60;;;;;;;;;;5051938;28;20021;-66
2022/09/17 05:39:48;;;;;;;19.05;7.25;;;;;;;;;;5052055;28;20021;-66
2022/09/17 05:42:14;;;;;;;19.65;7.90;;;;;;;;;;5051423;28;20020;-64
2022/09/17 05:44:40;;;;;;;26.83;8.02;;;;;;;;;;5051964;28;20025;-65
2022/09/17 05:47:06;;;;;;;18.70;7.28;;;;;;;;;;5052014;28;20021;-66
2022/09/17 05:49:32;;;;;;;19.58;7.55;;;;;;;;;;5051844;28;20354;-66
2022/09/17 05:51:58;;;;;;;24.52;8.68;;;;;;;;;;5051983;28;20040;-66
2022/09/17 05:54:24;;;;;;;22.15;7.50;;;;;;;;;;5052149;28;20096;-66
2022/09/17 05:56:53;;;;;;;18.20;7.43;;;;;;;;;;5052298;28;20021;-65
2022/09/17 05:59:19;;;;;;;20.20;7.43;;;;;;;;;;5051770;28;20017;-65
2022/09/17 06:01:45;;;;;;;19.08;8.00;;;;;;;;;;5051921;28;20024;-64
2022/09/17 06:04:11;;;;;;;23.67;8.00;;;;;;;;;;5050918;28;20031;-65
2022/09/17 06:06:38;;;;;;;21.05;8.02;;;;;;;;;;5052499;28;20025;-65
2022/09/17 06:09:07;;;;;;;22.88;8.05;;;;;;;;;;5052181;28;20032;-65
2022/09/17 06:11:33;;;;;;;21.02;8.10;;;;;;;;;;5054094;28;20478;-64
2022/09/17 06:13:59;;;;;;;18.80;8.32;;;;;;;;;;5052597;28;20028;-65
2022/09/17 06:16:26;;;;;;;24.02;8.45;;;;;;;;;;5051533;28;20018;-65
2022/09/17 06:18:52;;;;;;;18.55;7.75;;;;;;;;;;5050389;28;20079;-65
2022/09/17 06:21:18;;;;;;;18.58;7.70;;;;;;;;;;5050502;28;20048;-65
2022/09/17 06:23:44;;;;;;;19.27;8.18;;;;;;;;;;5050506;28;20050;-66
2022/09/17 06:26:11;;;;;;;21.23;7.32;;;;;;;;;;5052010;28;20024;-65
2022/09/17 06:28:37;;;;;;;20.17;8.07;;;;;;;;;;5051406;28;20096;-66
2022/09/17 06:31:05;;;;;;;22.35;7.30;;;;;;;;;;5051593;28;20073;-65
2022/09/17 06:33:31;;;;;;;19.85;6.90;;;;;;;;;;5051852;28;20047;-65
2022/09/17 06:36:02;;;;;;;18.65;7.68;;;;;;;;;;5051640;28;20347;-66
2022/09/17 06:38:29;;;;;;;19.08;8.52;;;;;;;;;;5051367;28;20025;-66
2022/09/17 06:40:54;;;;;;;19.50;7.18;;;;;;;;;;5051557;28;20424;-66
2022/09/17 06:43:21;;;;;;;20.33;7.05;;;;;;;;;;5051464;28;20060;-66
2022/09/17 06:45:54;;;;;;;18.60;7.07;;;;;;;;;;5051437;28;20021;-66
2022/09/17 06:48:21;;;;;;;19.13;6.88;;;;;;;;;;5052559;28;20043;-72
2022/09/17 06:50:47;;;;;;;21.30;7.95;;;;;;;;;;5053884;28;20575;-67
2022/09/17 06:53:13;;;;;;;17.70;7.50;;;;;;;;;;5055150;28;20029;-65
2022/09/17 06:55:39;;;;;;;22.52;7.00;;;;;;;;;;5055323;28;20364;-66
2022/09/17 06:58:05;;;;;;;20.92;7.00;;;;;;;;;;5054934;28;20023;-66
2022/09/17 07:00:31;;;;;;;19.13;7.05;;;;;;;;;;5053814;28;20377;-65
2022/09/17 07:02:57;;;;;;;19.58;7.47;;;;;;;;;;5053780;28;20020;-66
2022/09/17 07:05:24;;;;;;;22.30;7.68;;;;;;;;;;5055331;28;20021;-66
2022/09/17 07:07:50;;;;;;;17.75;6.60;;;;;;;;;;5054739;28;20021;-65
2022/09/17 07:10:16;;;;;;;15.10;6.43;;;;;;;;;;5054355;28;20029;-66
2022/09/17 07:12:42;;;;;;;19.45;6.60;;;;;;;;;;5054857;28;20100;-65
2022/09/17 07:15:14;;;;;;;16.13;6.60;;;;;;;;;;5054932;28;20040;-65
2022/09/17 07:17:41;;;;;;;17.83;6.70;;;;;;;;;;5054458;28;20032;-65
2022/09/17 07:20:07;;;;;;;20.13;7.63;;;;;;;;;;5054648;28;20025;-66
2022/09/17 07:22:33;;;;;;;17.60;6.72;;;;;;;;;;5054648;28;20031;-65
2022/09/17 07:24:59;;;;;;;19.77;7.25;;;;;;;;;;5054430;28;20029;-66
2022/09/17 07:27:29;;;;;;;18.38;6.38;;;;;;;;;;5054258;28;20017;-66
2022/09/17 07:29:55;;;;;;;17.15;6.75;;;;;;;;;;5054459;28;20527;-67
2022/09/17 07:32:21;;;;;;;20.17;7.20;;;;;;;;;;5054232;28;20061;-66
2022/09/17 07:34:48;;;;;;;15.18;6.20;;;;;;;;;;5054202;28;20017;-66
2022/09/17 07:37:14;;;;;;;17.15;6.93;;;;;;;;;;5054156;28;20075;-65
2022/09/17 07:39:40;;;;;;;18.95;6.90;;;;;;;;;;5054219;28;20036;-67
2022/09/17 07:42:07;;;;;;;17.85;7.25;;;;;;;;;;5053037;28;20031;-65
2022/09/17 07:44:33;;;;;;;17.95;6.35;;;;;;;;;;5053871;28;20078;-65
2022/09/17 07:46:59;;;;;;;18.52;7.35;;;;;;;;;;5053753;28;20029;-65
2022/09/17 07:49:25;;;;;;;18.77;7.25;;;;;;;;;;5053538;28;20090;-64
2022/09/17 07:51:51;;;;;;;14.85;6.78;;;;;;;;;;5052294;28;20775;-65
2022/09/17 07:54:17;;;;;;;19.67;7.30;;;;;;;;;;5053915;28;20020;-66
2022/09/17 07:56:43;;;;;;;17.45;7.07;;;;;;;;;;5053836;28;20017;-65
2022/09/17 07:59:13;;;;;;;23.25;7.72;;;;;;;;;;5052480;28;20044;-64
2022/09/17 08:01:39;;;;;;;21.10;7.57;;;;;;;;;;5053626;28;20051;-66
2022/09/17 08:04:05;;;;;;;19.00;6.85;;;;;;;;;;5053914;28;20429;-66
2022/09/17 08:06:35;;;;;;;16.95;6.72;;;;;;;;;;5053553;28;20044;-65
2022/09/17 08:09:01;;;;;;;16.52;6.93;;;;;;;;;;5051784;28;20032;-65
2022/09/17 08:11:28;;;;;;;18.45;7.13;;;;;;;;;;5053072;28;20473;-65
2022/09/17 08:13:54;;;;;;;17.92;7.47;;;;;;;;;;5051978;28;20104;-64
2022/09/17 08:16:21;;;;;;;21.75;8.65;;;;;;;;;;5053026;28;20043;-65
2022/09/17 08:18:47;;;;;;;19.95;7.70;;;;;;;;;;5052791;28;20067;-65
2022/09/17 08:21:17;;;;;;;18.50;7.68;;;;;;;;;;5052585;28;20104;-65
2022/09/17 08:23:43;;;;;;;19.92;8.00;;;;;;;;;;5053015;28;20048;-64
2022/09/17 08:26:12;;;;;;;16.90;7.80;;;;;;;;;;5051717;28;20384;-65
2022/09/17 08:28:38;;;;;;;17.88;8.25;;;;;;;;;;5052518;28;20075;-65
2022/09/17 08:31:05;;;;;;;17.60;8.52;;;;;;;;;;5052663;28;20025;-65
2022/09/17 08:33:36;;;;;;;21.88;7.45;;;;;;;;;;5052638;28;20108;-63
2022/09/17 08:36:02;;;;;;;17.42;7.72;;;;;;;;;;5052715;28;20485;-69
2022/09/17 08:38:29;;;;;;;13.93;6.70;;;;;;;;;;5052731;28;20025;-64
2022/09/17 08:40:59;;;;;;;16.90;7.00;;;;;;;;;;5052643;28;20059;-64
2022/09/17 08:43:26;;;;;;;16.92;7.43;;;;;;;;;;5052559;28;20085;-63
2022/09/17 08:45:56;;;;;;;19.75;8.20;;;;;;;;;;5051978;28;20427;-64
2022/09/17 08:48:22;;;;;;;18.25;7.85;;;;;;;;;;5052290;28;20084;-64
2022/09/17 08:50:49;;;;;;;21.27;8.23;;;;;;;;;;5051873;28;20472;-63
2022/09/17 08:53:20;;;;;;;18.58;7.35;;;;;;;;;;5050848;28;20080;-65
2022/09/17 08:55:58;;;;;;;18.45;7.60;;;;;;;;;;5052474;28;20044;-64
2022/09/17 08:58:25;;;;;;;16.75;8.05;;;;;;;;;;5051783;28;20078;-65
2022/09/17 09:00:55;;;;;;;17.13;7.95;;;;;;;;;;5051939;28;20478;-64
2022/09/17 09:03:58;;;;;;;16.00;7.85;;;;;;;;;;5052284;28;20021;-66
2022/09/17 09:06:27;;;;;;;15.60;7.22;;;;;;;;;;5029908;28;20053;-65
2022/09/17 09:08:57;;;;;;;18.25;7.82;;;;;;;;;;5043837;28;20178;-66
2022/09/17 09:11:26;;;;;;;18.00;7.88;;;;;;;;;;5050292;28;20047;-67
2022/09/17 09:13:52;;;;;;;;;;;;;;;;;;5051346;28;20045;-64
2022/09/17 09:16:23;;;;;;;15.82;6.90;;;;;;;;;;5052072;28;20324;-66
2022/09/17 09:18:56;;;;;;;16.70;7.57;;;;;;;;;;5051769;28;20032;-65
2022/09/17 09:21:29;;;;;;;16.08;7.75;;;;;;;;;;5051717;28;20028;-65
2022/09/17 09:23:57;;;;;;;17.70;7.20;;;;;;;;;;5052066;28;20055;-66
2022/09/17 09:26:43;;;;;;;18.50;7.37;;;;;;;;;;5050732;28;20021;-67
2022/09/17 09:29:10;;;;;;;17.90;7.78;;;;;;;;;;5029981;28;20275;-67
2022/09/17 09:31:48;;;;;;;19.40;7.88;;;;;;;;;;5050662;28;20028;-66
2022/09/17 09:34:14;;;;;;;17.33;7.20;;;;;;;;;;5051486;28;20025;-66
2022/09/17 09:36:40;;;;;;;17.70;7.47;;;;;;;;;;5051671;28;20044;-64
2022/09/17 09:39:13;;;;;;;17.98;7.88;;;;;;;;;;5050012;28;20393;-66
2022/09/17 09:41:59;;;;;;;14.50;6.85;;;;;;;;;;5051480;28;20499;-62
2022/09/17 09:44:25;;;;;;;15.27;7.78;;;;;;;;;;5049759;28;20025;-65
2022/09/17 09:47:06;;;;;;;15.27;7.22;;;;;;;;;;5051366;28;20025;-66
2022/09/17 09:49:56;;;;;;;16.17;7.72;;;;;;;;;;5051446;28;20025;-67
2022/09/17 09:52:31;;;;;;;14.85;7.57;;;;;;;;;;5044686;28;20029;-66
2022/09/17 09:55:03;;;;;;;14.98;7.30;;;;;;;;;;5055765;28;20025;-65
2022/09/17 09:57:46;;;;;;;14.52;7.45;;;;;;;;;;5053989;28;20485;-67
2022/09/17 10:00:39;;;;;;;17.58;7.43;;;;;;;;;;5051165;28;20039;-65
2022/09/17 10:03:17;;;;;;;19.15;7.30;;;;;;;;;;5050199;28;20037;-66
2022/09/17 10:06:00;;;;;;;17.73;7.30;;;;;;;;;;5049911;28;20033;-63
2022/09/17 10:08:27;;;;;;;14.50;7.15;;;;;;;;;;5049613;28;20037;-64
2022/09/17 10:10:54;;;;;;;18.65;7.53;;;;;;;;;;5049897;28;20029;-66
2022/09/17 10:13:20;;;;;;;13.35;6.82;;;;;;;;;;5049679;28;20107;-66
2022/09/17 10:15:46;;;;;;;17.58;7.03;;;;;;;;;;5049763;28;20043;-64
2022/09/17 10:18:16;;;;;;;15.25;7.05;;;;;;;;;;5049594;28;20397;-67
2022/09/17 10:20:55;;;;;;;16.17;7.70;;;;;;;;;;5050459;28;20021;-65
2022/09/17 10:23:22;;;;;;;15.95;7.45;;;;;;;;;;5054527;28;20401;-66
2022/09/17 10:25:49;;;;;;;20.17;16.55;;;;;;;;;;5075030;28;20035;-65
2022/09/17 10:28:21;;;;;;;23.45;21.35;;;;;;;;;;5073410;28;20032;-66
2022/09/17 10:31:05;;;;;;;24.15;22.15;;;;;;;;;;5073369;28;20029;-67
2022/09/17 10:33:32;;;;;;;25.63;23.52;;;;;;;;;;5056932;28;20400;-64
2022/09/17 10:36:09;;;;;;;27.10;25.00;;;;;;;;;;5054056;28;20031;-65
2022/09/17 10:38:38;;;;;;;26.25;24.15;;;;;;;;;;5053123;28;20025;-65
2022/09/17 10:41:18;;;;;;;24.00;22.00;;;;;;;;;;5051382;28;20496;-66
2022/09/17 10:43:44;;;;;;;23.00;21.10;;;;;;;;;;5054561;28;20411;-65
2022/09/17 10:46:13;;;;;;;21.90;20.00;;;;;;;;;;5053369;28;20376;-66
2022/09/17 10:48:42;;;;;;;22.05;20.15;;;;;;;;;;5054446;28;20033;-65
2022/09/17 10:51:09;;;;;;;20.38;18.58;;;;;;;;;;5054874;28;20059;-65
2022/09/17 10:53:54;;;;;;;19.25;17.45;;;;;;;;;;5054683;28;20024;-65
2022/09/17 10:56:22;;;;;;;16.75;15.05;;;;;;;;;;5052683;28;20016;-64
2022/09/17 10:58:56;;;;;;;15.68;13.98;;;;;;;;;;5054794;28;20020;-68
2022/09/17 11:01:40;;;;;;;15.10;13.00;;;;;;;;;;5054721;28;20025;-67
2022/09/17 11:04:15;;;;;;;14.82;12.25;;;;;;;;;;5054850;28;20475;-67
2022/09/17 11:07:00;;;;;;;15.00;12.60;;;;;;;;;;5055405;28;20139;-65
2022/09/17 11:09:26;;;;;;;17.75;13.27;;;;;;;;;;5054038;28;20032;-67
2022/09/17 11:12:11;;;;;;;14.50;11.25;;;;;;;;;;5054192;28;20021;-68
2022/09/17 11:14:40;;;;;;;14.30;10.70;;;;;;;;;;5053014;28;20457;-67
2022/09/17 11:17:25;;;;;;;14.00;10.00;;;;;;;;;;5054784;28;20100;-69
2022/09/17 11:19:58;;;;;;;13.85;9.45;;;;;;;;;;5063786;28;20017;-65
2022/09/17 11:22:33;;;;;;;13.50;8.50;;;;;;;;;;5054406;28;20384;-67
2022/09/17 11:25:05;;;;;;;12.50;7.30;;;;;;;;;;5055470;28;20029;-66
2022/09/17 11:27:39;;;;;;;12.50;7.95;;;;;;;;;;5052027;28;20125;-65
2022/09/17 11:30:22;;;;;;;11.95;6.97;;;;;;;;;;5053714;28;20115;-66
2022/09/17 11:32:51;;;;;;;12.40;7.25;;;;;;;;;;5052174;28;20438;-68
2022/09/17 11:35:20;;;;;;;13.30;7.90;;;;;;;;;;5053045;28;20025;-67
2022/09/17 11:37:49;;;;;;;12.70;7.40;;;;;;;;;;5053585;28;20017;-66
2022/09/17 11:40:25;;;;;;;13.82;8.38;;;;;;;;;;5052452;28;20028;-66
2022/09/17 11:42:54;;;;;;;12.68;7.40;;;;;;;;;;5053765;28;20031;-66
2022/09/17 11:45:24;;;;;;;12.40;7.22;;;;;;;;;;5053722;28;20020;-66
2022/09/17 11:47:55;;;;;;;12.77;7.40;;;;;;;;;;5053520;28;20512;-65
2022/09/17 11:50:24;;;;;;;13.23;7.80;;;;;;;;;;5053647;28;20029;-65
2022/09/17 11:52:56;;;;;;;13.15;7.70;;;;;;;;;;5053504;28;20021;-64
2022/09/17 11:55:41;;;;;;;14.02;8.68;;;;;;;;;;5053869;28;20369;-66
2022/09/17 11:58:24;;;;;;;13.52;8.40;;;;;;;;;;5053609;28;20017;-65
2022/09/17 12:00:52;;;;;;;13.05;7.65;;;;;;;;;;5053724;28;20056;-65
2022/09/17 12:03:24;;;;;;;13.20;7.85;;;;;;;;;;5052437;28;20037;-66
2022/09/17 12:05:58;;;;;;;13.30;8.00;;;;;;;;;;5052595;28;20025;-66
2022/09/17 12:08:39;;;;;;;13.23;7.72;;;;;;;;;;5051830;28;20027;-66
2022/09/17 12:11:23;;;;;;;12.80;7.50;;;;;;;;;;5074932;23;20497;-64
2022/09/17 12:13:51;;;;;;;13.60;8.40;;;;;;;;;;5069125;28;20063;-64
2022/09/17 12:16:36;;;;;;;13.27;7.90;;;;;;;;;;5053830;28;20436;-65
2022/09/17 12:19:21;;;;;;;13.10;7.63;;;;;;;;;;5053059;28;20025;-65
2022/09/17 12:21:54;;;;;;;13.35;7.90;;;;;;;;;;5053045;28;20079;-66
2022/09/17 12:24:24;;;;;;;13.40;8.18;;;;;;;;;;5051861;28;20107;-64
2022/09/17 12:26:50;;;;;;;12.65;7.38;;;;;;;;;;5051786;28;20381;-63
2022/09/17 12:29:23;;;;;;;12.85;7.60;;;;;;;;;;5052706;28;20013;-65
2022/09/17 12:31:58;;;;;;;12.60;7.35;;;;;;;;;;5051433;28;20025;-65
2022/09/17 12:34:30;;;;;;;13.13;7.70;;;;;;;;;;5052989;28;20028;-65
2022/09/17 12:37:07;;;;;;;13.27;7.82;;;;;;;;;;5052825;28;20038;-65
2022/09/17 12:39:56;;;;;;;14.75;12.25;;;;;;;;;;5052931;28;20073;-65
2022/09/17 12:42:22;;;;;;;22.88;20.88;;;;;;;;;;5052867;28;20082;-62
2022/09/17 12:45:00;;;;;;;28.33;26.02;;;;;;;;;;5051454;28;20029;-64
2022/09/17 12:47:26;;;;;;;28.55;26.25;;;;;;;;;;5052019;28;20389;-65
2022/09/17 12:49:58;;;;;;;30.27;27.98;;;;;;;;;;5052452;28;20027;-64
2022/09/17 12:52:27;;;;;;;31.08;28.77;;;;;;;;;;5051187;28;20025;-63
2022/09/17 12:55:08;;;;;;;30.17;27.88;;;;;;;;;;5052253;28;20017;-64
2022/09/17 12:57:49;;;;;;;26.23;24.13;;;;;;;;;;5050900;28;20036;-65
2022/09/17 13:00:16;;;;;;;20.73;18.83;;;;;;;;;;5052949;28;20048;-66
2022/09/17 13:02:42;;;;;;;18.65;16.85;;;;;;;;;;5051199;28;20033;-65
2022/09/17 13:05:26;;;;;;;15.57;13.88;;;;;;;;;;5052372;28;20033;-65
2022/09/17 13:07:52;;;;;;;16.15;14.45;;;;;;;;;;5050869;28;20458;-65
2022/09/17 13:10:18;;;;;;;15.15;12.95;;;;;;;;;;5051768;28;20083;-65
2022/09/17 13:12:57;;;;;;;15.15;12.88;;;;;;;;;;5052021;28;20057;-65
2022/09/17 13:15:30;;;;;;;14.95;12.30;;;;;;;;;;5050756;28;20024;-65
2022/09/17 13:18:01;;;;;;;14.73;12.00;;;;;;;;;;5051490;28;20025;-65
2022/09/17 13:20:47;;;;;;;14.68;11.68;;;;;;;;;;5051375;28;20021;-66
2022/09/17 13:23:13;;;;;;;14.20;10.32;;;;;;;;;;5050308;28;20479;-65
2022/09/17 13:25:52;;;;;;;14.00;9.82;;;;;;;;;;5050546;28;20056;-66
2022/09/17 13:28:18;;;;;;;13.82;9.45;;;;;;;;;;5050371;28;20029;-65
2022/09/17 13:30:55;;;;;;;13.80;8.70;;;;;;;;;;5050664;28;20032;-65
2022/09/17 13:33:40;;;;;;;12.93;7.60;;;;;;;;;;5050307;28;20029;-66
2022/09/17 13:36:26;;;;;;;11.90;7.00;;;;;;;;;;5050562;28;20024;-65
2022/09/17 13:38:52;;;;;;;18.25;16.45;;;;;;;;;;5050183;28;20025;-65
2022/09/17 13:41:20;;;;;;;16.67;14.98;;;;;;;;;;5050728;28;20021;-64
2022/09/17 13:43:47;;;;;;;15.40;13.65;;;;;;;;;;5051926;28;20078;-65
2022/09/17 13:46:15;;;;;;;16.00;14.30;;;;;;;;;;5050258;28;20040;-64
2022/09/17 13:48:41;;;;;;;;;;;;;;;;;;5050470;28;20374;-65
2022/09/17 13:51:26;;;;;;;16.80;15.10;;;;;;;;;;5050052;28;20003;-64
2022/09/17 13:53:53;;;;;;;16.30;14.60;;;;;;;;;;5051807;28;20086;-65
2022/09/17 13:56:49;;;;;;;15.20;13.30;;;;;;;;;;5052342;28;20118;-65
2022/09/17 13:59:15;;;;;;;15.10;12.98;;;;;;;;;;5047039;28;20078;-65
2022/09/17 14:01:58;;;;;;;14.68;11.82;;;;;;;;;;5055701;28;20100;-65
2022/09/17 14:04:33;;;;;;;15.00;12.93;;;;;;;;;;5055832;28;20309;-65
2022/09/17 14:06:59;;;;;;;14.60;11.52;;;;;;;;;;5054175;28;20017;-66
2022/09/17 14:09:33;;;;;;;14.60;11.45;;;;;;;;;;5053938;28;20077;-64
2022/09/17 14:11:59;;;;;;;14.60;11.43;;;;;;;;;;5053993;28;20025;-64
2022/09/17 14:14:28;;;;;;;31.25;13.15;;;;;;;;;;5055344;28;20044;-63
2022/09/17 14:16:54;;;;;;;14.55;11.38;;;;;;;;;;5055531;28;20032;-64
2022/09/17 14:19:23;;;;;;;14.50;11.18;;;;;;;;;;5053894;28;20024;-66
2022/09/17 14:21:56;;;;;;;14.18;10.40;;;;;;;;;;5055065;28;20048;-64
2022/09/17 14:24:22;;;;;;;14.00;9.70;;;;;;;;;;5055061;28;20028;-65
2022/09/17 14:27:11;;;;;;;13.43;8.60;;;;;;;;;;5053719;28;20047;-65
2022/09/17 14:29:56;;;;;;;13.48;8.30;;;;;;;;;;5044457;28;20064;-64
2022/09/17 14:32:41;;;;;;;13.38;8.02;;;;;;;;;;5054963;28;20477;-62
2022/09/17 14:35:15;;;;;;;12.63;7.40;;;;;;;;;;5054737;28;20036;-65
2022/09/17 14:37:42;;;;;;;12.70;7.40;;;;;;;;;;5053206;28;20020;-59
2022/09/17 14:40:10;;;;;;;12.27;7.18;;;;;;;;;;5054758;28;20025;-63